Time;durP1;ratioP1;P1;durP2;ratioP2;P2;SDS_P1;SDS_P2;PMS_P1;PMS_P2;Temp;Humidity;BMP_temperature;BMP_pressure;BME280_temperature;BME280_humidity;BME280_pressure;Samples;Min_cycle;Max_cycle;Signal;HPM_P1;HPM_P2
2023/08/26 00:02:37;;;;;;;5.93;3.47;;;;;;;20.45;84.22;97429.28;6216759;28;20230;-59
2023/08/26 00:05:45;;;;;;;5.60;3.67;;;;;;;20.31;86.03;97423.97;6241136;28;20237;-58
2023/08/26 00:08:54;;;;;;;2.90;2.60;;;;;;;20.26;85.92;97415.19;6218186;28;20228;-58
2023/08/26 00:12:01;;;;;;;5.83;3.37;;;;;;;20.20;86.23;97422.66;6223007;28;20793;-58
2023/08/26 00:15:09;;;;;;;3.50;3.20;;;;;;;20.13;86.68;97419.56;6219396;28;20267;-58
2023/08/26 00:18:16;;;;;;;3.80;3.37;;;;;;;19.95;87.21;97407.06;6219243;28;20212;-59
2023/08/26 00:21:22;;;;;;;5.33;3.30;;;;;;;19.99;87.36;97408.03;6217333;28;20224;-57
2023/08/26 00:24:25;;;;;;;4.23;3.47;;;;;;;19.98;86.81;97409.94;6218983;28;20255;-58
2023/08/26 00:27:31;;;;;;;4.37;3.43;;;;;;;19.95;87.81;97407.06;6219444;28;20599;-57
2023/08/26 00:30:37;;;;;;;4.37;3.23;;;;;;;19.90;87.28;97407.19;6220087;28;20228;-58
2023/08/26 00:33:40;;;;;;;4.53;3.30;;;;;;;19.84;87.96;97401.91;6215449;28;20272;-57
2023/08/26 00:36:46;;;;;;;3.93;3.37;;;;;;;19.80;88.01;97405.53;6219293;28;20356;-58
2023/08/26 00:39:49;;;;;;;3.67;2.90;;;;;;;19.73;88.07;97403.28;6221555;28;20250;-58
2023/08/26 00:42:54;;;;;;;6.53;3.43;;;;;;;19.53;88.67;97384.81;6218265;28;20232;-57
2023/08/26 00:46:01;;;;;;;6.10;3.73;;;;;;;19.57;89.29;97402.81;6218070;28;20237;-57
2023/08/26 00:49:08;;;;;;;3.73;3.43;;;;;;;19.53;89.34;97392.94;6217424;28;20231;-56
2023/08/26 00:52:14;;;;;;;5.70;3.60;;;;;;;19.45;89.28;97394.44;6221786;28;20318;-57
2023/08/26 00:55:20;;;;;;;3.57;2.83;;;;;;;19.39;89.35;97392.97;6212687;28;20632;-61
2023/08/26 00:58:23;;;;;;;5.40;3.67;;;;;;;19.32;89.25;97390.69;6223369;28;20238;-59
2023/08/26 01:01:32;;;;;;;3.40;3.10;;;;;;;19.28;89.73;97388.91;6214719;28;20240;-58
2023/08/26 01:04:36;;;;;;;3.67;3.37;;;;;;;19.23;89.52;97389.03;6220966;28;20251;-62
2023/08/26 01:07:42;;;;;;;3.57;3.27;;;;;;;19.17;89.50;97390.25;6220771;28;20274;-58
2023/08/26 01:10:49;;;;;;;4.80;3.37;;;;;;;19.12;89.34;97387.66;6219337;28;20232;-57
2023/08/26 01:14:10;;;;;;;4.93;3.33;;;;;;;19.07;89.74;97383.97;6225138;28;20239;-58
2023/08/26 01:17:18;;;;;;;6.50;3.60;;;;;;;19.00;89.57;97374.69;6219876;28;20239;-58
2023/08/26 01:20:25;;;;;;;3.63;3.30;;;;;;;18.94;90.28;97381.31;6228160;28;20235;-56
2023/08/26 01:23:38;;;;;;;5.37;3.47;;;;;;;18.90;90.06;97366.81;6237055;27;20284;-58
2023/08/26 01:26:43;;;;;;;5.27;3.53;;;;;;;18.83;90.40;97374.53;6220519;28;20247;-58
2023/08/26 01:29:51;;;;;;;4.10;2.97;;;;;;;18.81;90.77;97364.03;6226181;28;20239;-58
2023/08/26 01:33:21;;;;;;;3.37;3.07;;;;;;;18.79;91.08;97367.03;6224101;28;20577;-56
2023/08/26 01:36:27;;;;;;;3.97;3.40;;;;;;;18.77;90.68;97353.06;6218153;28;20235;-58
2023/08/26 01:39:32;;;;;;;4.57;3.30;;;;;;;18.72;91.58;97347.75;6225615;28;20230;-58
2023/08/26 01:42:41;;;;;;;3.77;3.20;;;;;;;18.71;90.99;97351.53;6213373;28;20581;-56
2023/08/26 01:45:43;;;;;;;6.03;3.40;;;;;;;18.67;91.08;97345.16;6221442;28;20342;-57
2023/08/26 01:48:47;;;;;;;5.37;3.40;;;;;;;18.62;91.11;97337.16;6224436;28;20601;-57
2023/08/26 01:51:50;;;;;;;4.43;3.37;;;;;;;18.61;91.28;97340.94;6222197;28;20701;-58
2023/08/26 01:54:56;;;;;;;4.40;3.47;;;;;;;18.57;92.42;97348.06;6223854;28;20311;-58
2023/08/26 01:58:01;;;;;;;4.23;3.70;;;;;;;18.53;93.10;97347.84;6223541;28;20233;-58
2023/08/26 02:01:08;;;;;;;6.73;3.80;;;;;;;18.49;92.76;97338.75;6224846;28;20280;-58
2023/08/26 02:04:14;;;;;;;5.17;3.50;;;;;;;18.50;92.71;97337.66;6217535;28;20231;-56
2023/08/26 02:07:24;;;;;;;3.97;3.03;;;;;;;18.49;93.93;97330.66;6216120;28;20242;-58
2023/08/26 02:10:32;;;;;;;4.17;3.37;;;;;;;18.49;93.92;97335.25;6228493;28;20263;-58
2023/08/26 02:13:38;;;;;;;4.20;3.10;;;;;;;18.48;94.43;97333.69;6217851;28;20232;-56
2023/08/26 02:16:45;;;;;;;5.37;3.60;;;;;;;18.47;93.93;97324.78;6228272;28;20240;-58
2023/08/26 02:19:50;;;;;;;5.30;3.40;;;;;;;18.41;94.29;97314.38;6227454;28;20235;-58
2023/08/26 02:22:53;;;;;;;5.97;3.60;;;;;;;18.47;94.15;97332.88;6206664;28;20228;-57
2023/08/26 02:25:59;;;;;;;3.43;3.13;;;;;;;18.46;94.41;97328.56;6220759;28;20251;-58
2023/08/26 02:29:05;;;;;;;6.00;3.70;;;;;;;18.46;94.92;97325.88;6219159;28;20231;-58
2023/08/26 02:32:08;;;;;;;8.53;3.83;;;;;;;18.47;94.72;97322.09;6218149;28;20232;-57
2023/08/26 02:35:15;;;;;;;4.67;3.80;;;;;;;18.49;94.86;97321.78;6217082;28;20224;-58
2023/08/26 02:38:21;;;;;;;3.73;3.40;;;;;;;18.49;95.05;97319.88;6229206;28;20232;-58
2023/08/26 02:41:28;;;;;;;4.13;3.73;;;;;;;18.45;95.26;97313.47;6215037;28;20240;-58
2023/08/26 02:44:34;;;;;;;5.10;4.03;;;;;;;18.50;94.66;97312.56;6219489;28;20236;-58
2023/08/26 02:47:40;;;;;;;6.37;3.50;;;;;;;18.50;95.19;97315.28;6215991;28;20232;-58
2023/08/26 02:50:58;;;;;;;5.20;3.60;;;;;;;18.50;95.73;97317.97;6219336;28;20231;-56
2023/08/26 02:54:07;;;;;;;5.63;3.80;;;;;;;18.46;96.39;97317.78;6213208;28;20229;-57
2023/08/26 02:57:12;;;;;;;4.33;3.93;;;;;;;18.16;96.17;97267.16;6218822;28;20326;-56
2023/08/26 03:00:15;;;;;;;3.93;3.63;;;;;;;18.48;96.36;97310.19;6220759;28;20261;-56
2023/08/26 03:03:24;;;;;;;3.97;3.60;;;;;;;18.52;96.42;97318.47;6223902;28;20236;-57
2023/08/26 03:06:28;;;;;;;7.50;3.83;;;;;;;18.54;96.68;97324.38;6208067;28;20228;-57
2023/08/26 03:09:32;;;;;;;5.93;4.30;;;;;;;18.55;96.85;97309.78;6221300;28;20657;-58
2023/08/26 03:12:35;;;;;;;5.00;4.47;;;;;;;18.57;96.68;97310.28;6221007;28;20238;-57
2023/08/26 03:15:38;;;;;;;4.60;4.07;;;;;;;18.58;96.54;97319.97;6220406;28;20780;-57
2023/08/26 03:18:42;;;;;;;4.43;4.03;;;;;;;18.57;96.65;97318.38;6222195;28;20239;-58
2023/08/26 03:21:49;;;;;;;5.63;3.80;;;;;;;18.56;96.96;97312.16;6218712;28;20232;-57
2023/08/26 03:24:52;;;;;;;6.30;3.73;;;;;;;18.56;97.35;97300.56;6221918;28;20228;-58
2023/08/26 03:27:59;;;;;;;4.20;3.80;;;;;;;18.55;96.89;97304.38;6218470;28;20324;-57
2023/08/26 03:31:07;;;;;;;5.63;4.47;;;;;;;18.51;97.68;97300.69;6213493;28;21041;-58
2023/08/26 03:34:18;;;;;;;5.63;3.97;;;;;;;18.52;98.07;97304.97;6221699;28;20225;-57
2023/08/26 03:37:23;;;;;;;4.50;4.10;;;;;;;18.53;97.94;97306.59;6215880;28;20228;-57
2023/08/26 03:40:26;;;;;;;8.67;4.30;;;;;;;18.53;97.94;97295.81;6224443;28;20232;-57
2023/08/26 03:43:35;;;;;;;6.17;3.70;;;;;;;18.54;98.40;97295.50;6217282;28;20269;-57
2023/08/26 03:46:39;;;;;;;4.57;3.97;;;;;;;18.55;98.41;97298.97;6218169;28;20247;-57
2023/08/26 03:49:41;;;;;;;4.17;3.53;;;;;;;18.59;98.11;97291.09;6220009;28;20266;-57
2023/08/26 03:52:43;;;;;;;4.67;3.40;;;;;;;18.61;98.49;97296.97;6214087;28;20237;-55
2023/08/26 03:55:46;;;;;;;3.90;3.60;;;;;;;18.51;98.21;97274.50;6220868;28;20312;-57
2023/08/26 03:58:51;;;;;;;4.17;3.77;;;;;;;18.62;98.09;97304.78;6215501;28;20232;-57
2023/08/26 04:01:54;;;;;;;5.13;3.73;;;;;;;18.62;97.92;97312.06;6215549;28;20317;-56
2023/08/26 04:04:57;;;;;;;4.40;3.73;;;;;;;18.61;98.13;97310.47;6218194;28;20607;-56
2023/08/26 04:08:00;;;;;;;4.77;3.50;;;;;;;18.59;98.25;97315.38;6218699;28;20358;-57
2023/08/26 04:11:02;;;;;;;5.73;3.80;;;;;;;18.58;98.27;97311.88;6207966;28;20236;-57
2023/08/26 04:14:04;;;;;;;3.87;3.47;;;;;;;18.58;98.26;97313.78;6215003;28;20255;-57
2023/08/26 04:17:07;;;;;;;4.43;3.87;;;;;;;18.58;98.64;97316.47;6213650;28;20602;-57
2023/08/26 04:20:11;;;;;;;4.10;3.70;;;;;;;18.59;98.89;97315.38;6218490;28;20231;-57
2023/08/26 04:23:14;;;;;;;4.03;3.63;;;;;;;18.61;98.57;97318.56;6217396;28;20236;-57
2023/08/26 04:26:17;;;;;;;4.20;3.80;;;;;;;18.64;98.72;97320.66;6212915;28;20240;-57
2023/08/26 04:29:19;;;;;;;3.60;3.30;;;;;;;18.64;98.56;97321.44;6221788;28;20242;-57
2023/08/26 04:32:22;;;;;;;3.97;3.67;;;;;;;18.64;98.58;97326.84;6200682;28;20235;-57
2023/08/26 04:35:24;;;;;;;4.53;3.67;;;;;;;18.62;98.91;97334.47;6225237;28;20223;-57
2023/08/26 04:38:27;;;;;;;5.83;3.90;;;;;;;18.63;98.97;97337.94;6219805;28;20615;-57
2023/08/26 04:41:29;;;;;;;7.73;3.87;;;;;;;18.64;99.77;97328.75;6233807;28;20705;-56
2023/08/26 04:44:31;;;;;;;4.50;3.80;;;;;;;18.65;100.00;97339.22;6219480;28;20321;-57
2023/08/26 04:47:33;;;;;;;4.83;3.80;;;;;;;18.67;99.54;97337.06;6227638;28;20240;-57
2023/08/26 04:50:36;;;;;;;4.30;3.90;;;;;;;18.68;100.00;97335.16;6223054;28;20740;-57
2023/08/26 04:53:39;;;;;;;4.97;3.80;;;;;;;18.69;99.81;97336.78;6221127;28;20232;-57
2023/08/26 04:56:41;;;;;;;4.20;3.80;;;;;;;18.70;99.89;97336.47;6220588;28;20608;-57
2023/08/26 04:59:43;;;;;;;4.37;3.97;;;;;;;18.76;100.00;97331.75;6218405;28;20701;-57
2023/08/26 05:02:46;;;;;;;4.70;4.20;;;;;;;18.79;100.00;97334.66;6221932;28;20265;-57
2023/08/26 05:05:49;;;;;;;6.33;3.87;;;;;;;18.84;100.00;97338.34;6220296;28;20569;-58
2023/08/26 05:08:54;;;;;;;5.33;4.77;;;;;;;18.86;100.00;97331.53;6223526;28;20243;-58
2023/08/26 05:11:57;;;;;;;5.67;4.50;;;;;;;18.96;100.00;97341.28;6223383;28;20267;-57
2023/08/26 05:15:00;;;;;;;4.37;3.97;;;;;;;18.90;100.00;97327.13;6223870;28;20333;-56
2023/08/26 05:18:04;;;;;;;4.97;4.57;;;;;;;19.02;99.81;97345.50;6218021;28;20232;-57
2023/08/26 05:21:06;;;;;;;7.47;4.63;;;;;;;19.07;99.73;97348.09;6218167;28;20252;-57
2023/08/26 05:24:09;;;;;;;5.47;4.73;;;;;;;19.15;100.00;97352.75;6219667;28;20216;-57
2023/08/26 05:27:11;;;;;;;5.20;4.60;;;;;;;19.26;99.36;97342.50;6213512;28;20308;-57
2023/08/26 05:30:17;;;;;;;5.17;4.10;;;;;;;19.38;98.94;97352.78;6222418;28;20218;-58
2023/08/26 05:33:27;;;;;;;5.60;5.00;;;;;;;19.50;98.53;97355.69;6219220;28;20311;-57
2023/08/26 05:36:29;;;;;;;4.87;4.47;;;;;;;19.61;97.93;97357.09;6216559;28;20280;-66
2023/08/26 05:39:31;;;;;;;4.60;4.13;;;;;;;19.73;97.77;97353.81;6225968;28;20627;-58
2023/08/26 05:42:33;;;;;;;4.53;4.13;;;;;;;19.81;96.96;97356.59;6218303;28;20357;-57
2023/08/26 05:45:36;;;;;;;4.23;3.87;;;;;;;19.91;96.65;97357.44;6220907;28;20235;-58
2023/08/26 05:48:38;;;;;;;4.00;3.70;;;;;;;19.98;96.41;97352.38;6218889;28;20296;-56
2023/08/26 05:51:42;;;;;;;4.33;3.93;;;;;;;20.04;95.98;97343.00;6219674;28;20236;-57
2023/08/26 05:54:44;;;;;;;4.97;4.13;;;;;;;20.11;95.83;97346.06;6215911;28;20244;-57
2023/08/26 05:57:47;;;;;;;4.17;3.80;;;;;;;20.19;95.11;97348.00;6217423;28;20239;-58
2023/08/26 06:00:50;;;;;;;3.80;3.43;;;;;;;20.26;94.74;97339.47;6225114;28;20780;-58
2023/08/26 06:03:54;;;;;;;4.97;4.00;;;;;;;20.36;94.53;97333.75;6215104;28;20331;-58
2023/08/26 06:06:59;;;;;;;3.97;3.57;;;;;;;20.47;93.07;97345.91;6222436;28;20233;-59
2023/08/26 06:10:02;;;;;;;4.47;4.07;;;;;;;20.55;93.31;97349.75;6224819;28;20231;-59
2023/08/26 06:13:05;;;;;;;4.37;3.83;;;;;;;20.55;93.72;97344.34;6221098;28;20232;-60
2023/08/26 06:16:07;;;;;;;4.10;3.73;;;;;;;20.69;93.94;97355.84;6217296;28;20232;-59
2023/08/26 06:19:11;;;;;;;6.00;4.47;;;;;;;20.76;93.75;97347.25;6216955;28;20229;-59
2023/08/26 06:22:13;;;;;;;5.90;4.10;;;;;;;20.80;93.75;97357.16;6220258;28;20227;-59
2023/08/26 06:25:16;;;;;;;3.80;3.50;;;;;;;20.85;93.69;97362.41;6219685;28;20290;-59
2023/08/26 06:28:18;;;;;;;4.70;4.13;;;;;;;20.90;94.39;97364.16;6224724;28;20233;-61
2023/08/26 06:31:21;;;;;;;4.90;3.50;;;;;;;20.95;93.45;97366.72;6216973;28;20240;-57
2023/08/26 06:34:24;;;;;;;4.50;3.70;;;;;;;21.04;93.50;97366.75;6217928;28;20242;-51
2023/08/26 06:37:26;;;;;;;5.67;4.20;;;;;;;21.11;93.36;97372.47;6221555;28;20228;-52
2023/08/26 06:40:31;;;;;;;4.40;4.00;;;;;;;21.21;93.41;97366.72;6221150;28;20237;-52
2023/08/26 06:43:33;;;;;;;5.00;3.93;;;;;;;21.32;93.23;97369.94;6217084;28;20288;-53
2023/08/26 06:46:37;;;;;;;4.40;4.00;;;;;;;21.42;93.09;97374.25;6219507;28;20287;-52
2023/08/26 06:49:39;;;;;;;4.90;4.27;;;;;;;21.63;89.71;97364.38;6222926;28;20330;-53
2023/08/26 06:52:42;;;;;;;6.63;3.80;;;;;;;21.80;89.63;97371.66;6226727;28;20234;-53
2023/08/26 06:55:45;;;;;;;3.90;3.50;;;;;;;21.98;86.46;97373.22;6223029;28;20981;-53
2023/08/26 06:58:47;;;;;;;5.87;4.03;;;;;;;22.09;85.50;97355.47;6218380;28;20306;-53
2023/08/26 07:01:50;;;;;;;4.27;3.50;;;;;;;22.35;84.54;97371.66;6222049;28;20235;-54
2023/08/26 07:04:52;;;;;;;6.37;3.73;;;;;;;22.51;82.16;97379.25;6220683;28;20231;-54
2023/08/26 07:07:54;;;;;;;4.70;3.45;;;;;;;22.67;82.47;97383.84;6219454;28;20233;-54
2023/08/26 07:10:59;;;;;;;4.72;3.63;;;;;;;22.80;81.69;97395.56;6214071;28;20319;-54
2023/08/26 07:14:02;;;;;;;4.18;3.70;;;;;;;22.96;81.32;97392.34;6216502;28;20365;-55
2023/08/26 07:17:04;;;;;;;4.00;3.60;;;;;;;23.15;80.48;97395.38;6214960;28;20235;-55
2023/08/26 07:20:08;;;;;;;4.80;3.03;;;;;;;23.32;79.80;97406.13;6218922;28;20232;-55
2023/08/26 07:23:11;;;;;;;5.40;3.42;;;;;;;23.51;78.22;97408.38;6220543;28;20712;-54
2023/08/26 07:26:13;;;;;;;4.43;3.33;;;;;;;23.71;78.09;97406.00;6219609;28;20236;-56
2023/08/26 07:29:15;;;;;;;4.38;3.58;;;;;;;23.89;73.53;97418.31;6218227;28;20605;-57
2023/08/26 07:32:18;;;;;;;4.00;3.53;;;;;;;24.32;68.25;97425.22;6216806;28;20639;-56
2023/08/26 07:35:20;;;;;;;4.35;3.90;;;;;;;24.80;65.99;97427.25;6221418;28;20220;-56
2023/08/26 07:38:22;;;;;;;4.88;4.00;;;;;;;24.89;65.15;97429.84;6222040;28;20318;-58
2023/08/26 07:41:24;;;;;;;6.63;3.78;;;;;;;24.99;66.45;97442.22;6216741;28;20232;-58
2023/08/26 07:44:29;;;;;;;6.47;3.75;;;;;;;24.98;67.04;97440.66;6218747;28;20238;-58
2023/08/26 07:47:32;;;;;;;3.95;3.55;;;;;;;25.15;65.37;97451.31;6216543;28;20243;-58
2023/08/26 07:50:38;;;;;;;4.65;3.85;;;;;;;25.12;64.83;97455.53;6208192;28;20227;-62
2023/08/26 07:53:40;;;;;;;5.07;3.95;;;;;;;25.04;67.04;97456.41;6218803;28;20267;-60
2023/08/26 07:56:42;;;;;;;6.43;3.60;;;;;;;25.03;66.64;97446.66;6221262;28;20220;-58
2023/08/26 07:59:45;;;;;;;5.15;3.72;;;;;;;25.12;67.20;97461.00;6217279;28;20296;-60
2023/08/26 08:02:47;;;;;;;4.93;4.00;;;;;;;25.20;67.55;97473.69;6220371;28;20223;-60
2023/08/26 08:05:49;;;;;;;5.13;4.18;;;;;;;25.18;67.63;97477.91;6219125;28;20238;-58
2023/08/26 08:08:52;;;;;;;8.20;3.90;;;;;;;25.10;67.77;97474.16;6219725;28;20771;-60
2023/08/26 08:11:54;;;;;;;7.05;3.85;;;;;;;25.14;68.50;97474.28;6209043;28;20247;-56
2023/08/26 08:14:57;;;;;;;8.98;4.13;;;;;;;25.24;67.97;97471.09;6215001;28;20225;-56
2023/08/26 08:17:59;;;;;;;5.50;3.67;;;;;;;25.32;66.85;97472.06;6221698;28;20303;-65
2023/08/26 08:21:02;;;;;;;4.80;3.95;;;;;;;25.29;66.88;97479.03;6220274;28;20320;-60
2023/08/26 08:24:05;;;;;;;4.80;4.25;;;;;;;25.33;67.00;97479.16;6222343;28;20377;-62
2023/08/26 08:27:07;;;;;;;5.75;3.60;;;;;;;25.34;68.17;97480.72;6216351;28;20782;-61
2023/08/26 08:30:10;;;;;;;4.28;3.92;;;;;;;25.31;65.42;97482.19;6217206;28;20212;-60
2023/08/26 08:33:13;;;;;;;4.32;3.65;;;;;;;25.23;64.46;97464.03;6214969;28;20208;-58
2023/08/26 08:36:15;;;;;;;8.52;3.80;;;;;;;25.10;64.53;97462.47;6218196;28;20571;-60
2023/08/26 08:39:17;;;;;;;5.05;3.90;;;;;;;25.11;64.55;97470.28;6211242;28;20212;-62
2023/08/26 08:42:22;;;;;;;5.40;4.00;;;;;;;25.06;63.37;97475.16;6215411;28;20230;-59
2023/08/26 08:45:26;;;;;;;4.80;3.30;;;;;;;24.98;63.49;97465.97;6227439;28;20234;-59
2023/08/26 08:48:28;;;;;;;4.40;4.00;;;;;;;24.67;66.05;97480.13;6214283;28;20228;-60
2023/08/26 08:51:32;;;;;;;4.72;4.15;;;;;;;24.61;66.36;97489.66;6216030;28;20231;-62
2023/08/26 08:54:35;;;;;;;4.15;3.75;;;;;;;24.59;66.94;97500.09;6218448;28;20263;-61
2023/08/26 08:57:40;;;;;;;5.13;4.63;;;;;;;24.70;67.04;97499.31;6212897;28;20232;-60
2023/08/26 09:00:45;;;;;;;6.95;4.90;;;;;;;24.55;67.28;97519.03;6189924;28;20266;-60
2023/08/26 09:03:50;;;;;;;7.07;5.40;;;;;;;24.45;67.15;97525.72;6212745;28;20235;-60
2023/08/26 09:06:54;;;;;;;6.18;5.25;;;;;;;24.32;69.10;97528.69;6198782;28;20323;-59
2023/08/26 09:09:58;;;;;;;6.13;5.60;;;;;;;24.33;68.98;97535.72;6221229;28;20342;-59
2023/08/26 09:13:05;;;;;;;6.18;5.60;;;;;;;24.15;71.02;97529.66;6213460;28;20236;-63
2023/08/26 09:16:10;;;;;;;7.65;6.05;;;;;;;24.13;70.99;97515.56;6195208;28;20577;-62
2023/08/26 09:19:14;;;;;;;6.35;5.00;;;;;;;24.53;68.38;97534.13;6214985;28;20228;-62
2023/08/26 09:22:19;;;;;;;6.72;4.80;;;;;;;24.52;68.37;97544.22;6222755;28;20239;-61
2023/08/26 09:25:23;;;;;;;7.47;4.53;;;;;;;24.66;67.41;97552.09;6218209;28;20236;-60
2023/08/26 09:28:26;;;;;;;7.13;4.88;;;;;;;24.59;66.45;97539.03;6218059;28;20248;-66
2023/08/26 09:31:28;;;;;;;7.55;4.75;;;;;;;24.94;64.33;97553.06;6216218;28;20280;-60
2023/08/26 09:34:33;;;;;;;4.80;4.30;;;;;;;25.00;62.67;97559.06;6218911;28;20216;-61
2023/08/26 09:37:35;;;;;;;6.90;4.90;;;;;;;25.05;62.11;97541.72;6216742;28;20246;-61
2023/08/26 09:40:38;;;;;;;4.93;3.95;;;;;;;25.01;63.25;97540.78;6219006;28;20232;-62
2023/08/26 09:43:42;;;;;;;5.82;4.53;;;;;;;24.99;63.87;97532.16;6216494;28;20220;-61
2023/08/26 09:46:45;;;;;;;8.40;4.57;;;;;;;24.99;63.13;97521.25;6215015;28;20287;-63
2023/08/26 09:49:50;;;;;;;5.90;4.10;;;;;;;25.23;62.07;97523.25;6218717;28;20324;-64
2023/08/26 09:52:52;;;;;;;5.43;3.40;;;;;;;25.33;62.35;97503.69;6225426;28;20241;-63
2023/08/26 09:55:57;;;;;;;4.65;3.70;;;;;;;25.40;64.55;97491.06;6222072;28;20236;-63
2023/08/26 09:58:59;;;;;;;3.72;3.42;;;;;;;25.47;63.80;97479.59;6219505;28;20281;-64
2023/08/26 10:02:03;;;;;;;3.83;3.42;;;;;;;25.58;61.52;97490.81;6225636;28;20250;-63
2023/08/26 10:05:15;;;;;;;4.97;3.67;;;;;;;25.64;61.38;97490.22;6215670;28;20726;-62
2023/08/26 10:08:19;;;;;;;4.90;3.25;;;;;;;25.89;58.10;97490.97;6220658;28;20313;-63
2023/08/26 10:11:23;;;;;;;5.57;3.20;;;;;;;26.14;56.40;97488.13;6218334;28;20236;-64
2023/08/26 10:14:29;;;;;;;4.15;3.38;;;;;;;26.09;56.18;97491.91;6216654;28;20308;-61
2023/08/26 10:17:34;;;;;;;4.32;3.75;;;;;;;26.24;55.90;97484.91;6219082;28;20228;-61
2023/08/26 10:20:38;;;;;;;4.10;3.10;;;;;;;26.40;54.79;97484.91;6222297;28;20677;-61
2023/08/26 10:23:41;;;;;;;3.80;3.40;;;;;;;26.55;53.80;97483.38;6216284;28;20228;-58
2023/08/26 10:26:44;;;;;;;4.45;3.38;;;;;;;26.59;52.25;97463.22;6217798;28;20714;-63
2023/08/26 10:29:47;;;;;;;4.05;3.20;;;;;;;26.43;53.49;97462.41;6219572;28;20231;-62
2023/08/26 10:33:01;;;;;;;4.13;3.22;;;;;;;26.19;52.94;97463.31;6219201;28;20228;-61
2023/08/26 10:36:13;;;;;;;5.13;3.40;;;;;;;26.07;53.83;97472.38;6231516;28;20262;-60
2023/08/26 10:39:21;;;;;;;3.83;3.35;;;;;;;26.09;54.53;97470.06;6219506;28;20217;-60
2023/08/26 10:42:23;;;;;;;4.40;3.55;;;;;;;26.27;52.90;97467.81;6221141;28;20589;-63
2023/08/26 10:45:26;;;;;;;7.38;3.40;;;;;;;26.29;52.57;97471.00;6215865;28;20264;-61
2023/08/26 10:48:28;;;;;;;3.40;3.10;;;;;;;26.23;53.14;97475.91;6217161;28;20231;-60
2023/08/26 10:51:35;;;;;;;4.82;3.53;;;;;;;26.34;53.65;97481.66;6221081;28;20341;-59
2023/08/26 10:54:37;;;;;;;5.15;2.75;;;;;;;26.51;52.37;97488.00;6218601;28;20709;-61
2023/08/26 10:58:12;;;;;;;3.63;2.95;;;;;;;26.33;52.62;97462.91;6213855;28;20219;-59
2023/08/26 11:01:16;;;;;;;3.63;2.53;;;;;;;26.43;51.56;97482.31;6218433;28;20235;-59
2023/08/26 11:04:18;;;;;;;3.58;3.28;;;;;;;26.24;52.57;97482.16;6214910;28;20239;-59
2023/08/26 11:07:21;;;;;;;3.78;2.90;;;;;;;26.19;53.07;97480.47;6214528;28;20334;-61
2023/08/26 11:10:28;;;;;;;3.83;3.17;;;;;;;26.10;54.11;97479.84;6216992;28;20243;-59
2023/08/26 11:13:32;;;;;;;6.53;3.30;;;;;;;26.13;55.38;97486.56;6220753;28;20228;-59
2023/08/26 11:17:09;;;;;;;3.47;2.85;;;;;;;26.12;54.53;97488.50;6220165;28;20689;-58
2023/08/26 11:20:34;;;;;;;4.40;3.22;;;;;;;26.19;54.34;97493.34;6216463;28;20578;-58
2023/08/26 11:23:54;;;;;;;5.75;3.42;;;;;;;26.38;53.97;97488.00;6219363;28;20224;-60
2023/08/26 11:27:04;;;;;;;5.85;3.30;;;;;;;26.55;54.29;97483.38;6213874;28;20355;-60
2023/08/26 11:30:19;;;;;;;3.95;3.55;;;;;;;26.61;53.44;97484.75;6219287;28;20220;-61
2023/08/26 11:37:32;;;;;;;4.82;3.50;;;;;;;26.49;54.38;97475.44;6210043;28;20353;-61
2023/08/26 11:40:41;;;;;;;3.50;3.20;;;;;;;26.54;54.13;97473.59;6219626;28;20648;-65
2023/08/26 11:43:43;;;;;;;4.68;2.92;;;;;;;26.62;53.84;97476.19;6217768;28;20239;-64
2023/08/26 11:46:55;;;;;;;3.50;3.10;;;;;;;26.74;52.69;97472.56;6216735;28;20783;-65
2023/08/26 11:50:04;;;;;;;3.70;2.70;;;;;;;26.95;47.76;97475.84;6218401;28;20264;-66
2023/08/26 11:53:07;;;;;;;3.50;2.35;;;;;;;26.90;47.31;97464.38;6218126;28;20232;-64
2023/08/26 11:56:09;;;;;;;3.92;2.60;;;;;;;27.05;47.70;97458.09;6215802;28;20607;-66
2023/08/26 11:59:21;;;;;;;2.88;2.67;;;;;;;27.15;48.45;97459.53;6213988;28;20700;-65
2023/08/26 12:02:25;;;;;;;3.40;2.35;;;;;;;27.15;47.65;97465.78;6218871;28;20228;-65
2023/08/26 12:05:27;;;;;;;4.50;2.63;;;;;;;27.20;47.02;97453.78;6214733;28;20246;-62
2023/08/26 12:08:35;;;;;;;4.38;2.40;;;;;;;27.30;47.15;97453.22;6216592;28;20242;-63
2023/08/26 12:11:50;;;;;;;3.55;2.67;;;;;;;27.32;45.26;97467.31;6211604;28;20717;-62
2023/08/26 12:15:05;;;;;;;2.90;2.60;;;;;;;27.16;45.63;97455.63;6217298;28;20232;-64
2023/08/26 12:18:09;;;;;;;5.55;2.90;;;;;;;27.23;46.13;97445.63;6214556;28;20316;-65
2023/08/26 12:21:11;;;;;;;3.38;2.22;;;;;;;27.24;46.55;97457.34;6217277;28;20694;-60
2023/08/26 12:24:16;;;;;;;2.50;2.30;;;;;;;27.08;48.21;97449.19;6218330;28;20243;-66
2023/08/26 12:27:26;;;;;;;3.33;2.60;;;;;;;26.95;49.04;97456.69;6220386;28;20261;-65
2023/08/26 12:30:43;;;;;;;4.15;2.75;;;;;;;26.87;48.60;97446.72;6208264;28;20330;-63
2023/08/26 12:33:58;;;;;;;6.15;2.90;;;;;;;26.89;48.36;97449.88;6205988;28;20249;-62
2023/08/26 12:37:04;;;;;;;2.88;2.58;;;;;;;26.98;48.80;97445.03;6228544;28;20239;-64
2023/08/26 12:40:07;;;;;;;3.30;2.60;;;;;;;27.11;48.21;97434.81;6214512;28;20227;-61
2023/08/26 12:43:11;;;;;;;3.90;2.92;;;;;;;27.09;48.82;97430.84;6213231;28;20232;-64
2023/08/26 12:46:15;;;;;;;3.70;2.67;;;;;;;27.17;48.62;97427.91;6200583;28;20240;-65
2023/08/26 12:49:25;;;;;;;3.40;2.63;;;;;;;27.17;48.18;97436.13;6214021;28;20252;-62
2023/08/26 12:52:38;;;;;;;3.05;2.85;;;;;;;27.21;49.01;97425.28;6215239;28;20233;-63
2023/08/26 12:55:48;;;;;;;3.30;2.65;;;;;;;27.26;48.73;97414.84;6221138;28;20607;-61
2023/08/26 12:58:51;;;;;;;2.92;2.40;;;;;;;27.20;47.37;97419.00;6220959;28;20236;-63
2023/08/26 13:01:56;;;;;;;2.47;2.22;;;;;;;27.15;47.05;97421.22;6221678;28;20231;-62
2023/08/26 13:05:10;;;;;;;3.65;2.30;;;;;;;27.18;46.44;97428.72;6219689;28;20842;-64
2023/08/26 13:08:16;;;;;;;3.40;2.25;;;;;;;27.12;46.79;97413.72;6220654;28;20236;-63
2023/08/26 13:11:20;;;;;;;3.08;2.60;;;;;;;27.17;47.67;97416.97;6219964;28;20732;-61
2023/08/26 13:14:47;;;;;;;5.10;2.50;;;;;;;27.13;47.58;97407.91;6220185;28;20234;-66
2023/08/26 13:17:57;;;;;;;2.58;2.38;;;;;;;27.21;45.46;97411.59;6224266;28;20216;-68
2023/08/26 13:21:11;;;;;;;2.72;2.35;;;;;;;27.30;44.71;97409.44;6222111;28;20302;-64
2023/08/26 13:24:14;;;;;;;3.40;2.17;;;;;;;27.28;45.49;97414.47;6217034;28;20221;-65
2023/08/26 13:27:17;;;;;;;2.97;2.28;;;;;;;27.23;46.26;97410.06;6224762;28;20724;-67
2023/08/26 13:30:19;;;;;;;3.08;2.72;;;;;;;27.23;46.44;97399.13;6221565;28;20247;-65
2023/08/26 13:33:21;;;;;;;2.83;2.30;;;;;;;27.23;46.62;97401.88;6220405;28;20711;-66
2023/08/26 13:36:26;;;;;;;2.88;2.25;;;;;;;27.26;47.79;97398.44;6217997;28;20233;-65
2023/08/26 13:39:41;;;;;;;6.80;2.40;;;;;;;27.25;47.13;97396.84;6221490;28;20270;-64
2023/08/26 13:42:46;;;;;;;3.92;2.72;;;;;;;27.09;48.21;97376.16;6214680;28;20314;-61
2023/08/26 13:45:48;;;;;;;3.53;2.50;;;;;;;27.23;48.01;97382.72;6219647;28;20224;-64
2023/08/26 13:48:51;;;;;;;5.07;2.70;;;;;;;27.24;47.51;97378.03;6216768;28;20243;-71
2023/08/26 13:51:54;;;;;;;5.40;2.50;;;;;;;27.14;47.82;97343.06;6215212;28;20314;-67
2023/08/26 13:54:56;;;;;;;3.38;2.70;;;;;;;27.30;48.17;97365.69;6217594;28;20235;-64
2023/08/26 13:57:58;;;;;;;5.78;2.80;;;;;;;27.31;48.64;97367.25;6216559;28;20220;-65
2023/08/26 14:01:03;;;;;;;3.67;3.13;;;;;;;27.13;48.89;97342.25;6224918;28;20246;-62
2023/08/26 14:04:06;;;;;;;3.60;2.97;;;;;;;27.32;49.50;97355.16;6218850;28;20232;-59
2023/08/26 14:07:08;;;;;;;5.18;3.00;;;;;;;27.38;49.34;97350.19;6219471;28;20240;-68
2023/08/26 14:10:10;;;;;;;3.10;2.78;;;;;;;27.34;51.73;97346.59;6221209;28;20228;-66
2023/08/26 14:13:12;;;;;;;2.92;2.70;;;;;;;27.21;51.46;97354.16;6215889;28;20480;-65
2023/08/26 14:16:15;;;;;;;3.50;2.70;;;;;;;27.20;50.45;97360.78;6217562;28;20285;-66
2023/08/26 14:19:17;;;;;;;4.85;2.72;;;;;;;27.32;49.63;97338.75;6218474;28;20232;-64
2023/08/26 14:22:20;;;;;;;3.28;2.65;;;;;;;27.31;48.44;97353.59;6218410;28;20235;-63
2023/08/26 14:25:22;;;;;;;3.63;2.55;;;;;;;27.37;45.32;97343.94;6218579;28;20715;-64
2023/08/26 14:28:25;;;;;;;3.20;1.88;;;;;;;27.38;44.35;97340.03;6236689;28;20238;-65
2023/08/26 14:31:27;;;;;;;2.72;2.03;;;;;;;27.23;46.27;97352.63;6218397;28;20232;-67
2023/08/26 14:34:29;;;;;;;2.75;1.80;;;;;;;27.17;45.12;97328.66;6217797;28;20308;-63
2023/08/26 14:37:32;;;;;;;3.00;2.22;;;;;;;27.09;46.44;97316.78;6220969;28;20282;-69